Time;durP1;ratioP1;P1;durP2;ratioP2;P2;SDS_P1;SDS_P2;PMS_P1;PMS_P2;Temp;Humidity;BMP_temperature;BMP_pressure;BME280_temperature;BME280_humidity;BME280_pressure;Samples;Min_cycle;Max_cycle;Signal;HPM_P1;HPM_P2
2023/08/27 05:33:36;;;;;;;1.00;1.00;;;;;;;;;;4916696;29;20728;-76
2023/08/27 05:36:05;;;;;;;1.25;1.25;;;;;;;;;;4918251;29;20722;-76
2023/08/27 05:38:34;;;;;;;1.20;1.20;;;;;;;;;;4918315;29;20567;-76
2023/08/27 05:41:03;;;;;;;1.40;1.40;;;15.50;99.90;;;;;;4918158;29;20322;-75
2023/08/27 05:45:59;;;;;;;1.27;1.27;;;;;;;;;;4935961;29;20228;-71
2023/08/27 05:48:26;;;;;;;1.13;1.13;;;;;;;;;;4937079;29;20211;-71
2023/08/27 05:50:55;;;;;;;1.30;1.30;;;;;;;;;;4937012;29;20205;-71
2023/08/27 05:53:21;;;;;;;1.00;1.00;;;15.80;99.90;;;;;;4936540;29;20572;-70
2023/08/27 05:55:48;;;;;;;1.05;1.05;;;15.90;99.90;;;;;;4917949;29;20209;-70
2023/08/27 05:58:15;;;;;;;1.23;1.23;;;;;;;;;;4918497;29;20212;-70
2023/08/27 06:00:42;;;;;;;1.30;1.30;;;15.90;99.90;;;;;;4918185;29;20205;-70
2023/08/27 06:03:10;;;;;;;1.23;1.23;;;;;;;;;;4917093;29;20227;-70
2023/08/27 06:05:37;;;;;;;1.02;1.02;;;;;;;;;;4917619;29;20265;-70
2023/08/27 06:08:05;;;;;;;0.93;0.93;;;15.90;99.90;;;;;;4917707;29;20213;-71
2023/08/27 06:10:32;;;;;;;1.10;1.10;;;16.10;99.90;;;;;;4917625;29;20213;-71
2023/08/27 06:12:59;;;;;;;1.42;1.00;;;16.20;99.90;;;;;;4917780;29;20205;-70
2023/08/27 06:15:27;;;;;;;1.00;1.00;;;16.20;99.90;;;;;;4917120;29;20600;-71
2023/08/27 06:17:54;;;;;;;1.27;1.27;;;16.30;99.90;;;;;;4917550;29;20205;-71
2023/08/27 06:20:21;;;;;;;1.20;1.20;;;16.30;99.90;;;;;;4917614;29;20257;-71
2023/08/27 06:22:48;;;;;;;1.77;1.10;;;;;;;;;;4917432;29;20213;-71
2023/08/27 06:25:17;;;;;;;1.17;1.17;;;;;;;;;;4917334;29;20221;-71
2023/08/27 06:27:44;;;;;;;1.02;1.02;;;;;;;;;;4917661;29;20220;-72
2023/08/27 06:30:11;;;;;;;0.90;0.90;;;;;;;;;;4917737;29;20214;-72
2023/08/27 06:32:38;;;;;;;1.10;1.10;;;;;;;;;;4917392;29;20205;-71
2023/08/27 06:35:05;;;;;;;1.67;1.58;;;;;;;;;;4917250;29;20229;-71
2023/08/27 06:37:32;;;;;;;0.98;0.98;;;;;;;;;;4917345;29;20232;-70
2023/08/27 06:39:59;;;;;;;1.20;1.20;;;;;;;;;;4916918;29;20681;-70
2023/08/27 06:42:28;;;;;;;1.20;1.20;;;;;;;;;;4917153;29;20294;-71
2023/08/27 06:44:55;;;;;;;1.77;1.70;;;;;;;;;;4916651;29;20240;-70
2023/08/27 06:47:22;;;;;;;1.50;1.50;;;;;;;;;;4917141;29;20212;-70
2023/08/27 06:49:51;;;;;;;1.20;1.20;;;;;;;;;;4917182;29;20231;-70
2023/08/27 06:52:18;;;;;;;1.13;1.13;;;;;;;;;;4917851;29;20189;-70
2023/08/27 06:54:45;;;;;;;1.05;1.05;;;;;;;;;;4916989;29;20328;-71
2023/08/27 06:57:12;;;;;;;1.10;1.10;;;;;;;;;;4916804;29;20700;-71
2023/08/27 06:59:41;;;;;;;1.10;1.10;;;;;;;;;;4917083;29;20202;-72
2023/08/27 07:02:08;;;;;;;1.17;1.17;;;;;;;;;;4916737;29;20190;-71
2023/08/27 07:04:35;;;;;;;1.10;1.10;;;;;;;;;;4916975;29;20228;-71
2023/08/27 07:07:02;;;;;;;1.08;1.08;;;;;;;;;;4916773;29;20569;-71
2023/08/27 07:09:29;;;;;;;1.17;1.17;;;;;;;;;;4917122;29;20201;-71
2023/08/27 07:11:56;;;;;;;1.17;1.08;;;;;;;;;;4916826;29;20684;-71
2023/08/27 07:14:23;;;;;;;1.10;1.10;;;;;;;;;;4919922;29;20229;-72
2023/08/27 07:16:52;;;;;;;0.90;0.90;;;;;;;;;;4921274;29;20227;-71
2023/08/27 07:19:20;;;;;;;1.30;1.30;;;;;;;;;;4921327;29;20304;-71
2023/08/27 07:21:47;;;;;;;1.10;1.10;;;;;;;;;;4921029;29;20216;-72
2023/08/27 07:24:14;;;;;;;1.20;1.20;;;;;;;;;;4920865;29;20221;-71
2023/08/27 07:26:41;;;;;;;1.27;1.27;;;;;;;;;;4921636;29;20296;-73
2023/08/27 07:29:08;;;;;;;0.90;0.90;;;;;;;;;;4922060;29;20208;-72
2023/08/27 07:31:35;;;;;;;0.90;0.90;;;;;;;;;;4922217;29;20212;-71
2023/08/27 07:34:04;;;;;;;0.90;0.90;;;;;;;;;;4921545;29;20225;-70
2023/08/27 07:36:35;;;;;;;1.20;1.20;;;17.60;99.90;;;;;;4921480;29;20208;-71
2023/08/27 07:39:02;;;;;;;0.80;0.80;;;;;;;;;;4920839;29;20667;-73
2023/08/27 07:41:29;;;;;;;0.90;0.90;;;;;;;;;;4920924;29;20231;-73
2023/08/27 07:43:56;;;;;;;1.10;1.10;;;;;;;;;;4920486;29;20263;-73
2023/08/27 07:46:27;;;;;;;1.20;1.20;;;17.70;99.90;;;;;;4920360;29;20189;-73
2023/08/27 07:48:54;;;;;;;0.85;0.85;;;;;;;;;;4920448;29;20204;-73
2023/08/27 07:51:22;;;;;;;0.90;0.90;;;;;;;;;;4920573;29;20212;-71
2023/08/27 07:53:50;;;;;;;0.95;0.95;;;;;;;;;;4920413;29;20229;-73
2023/08/27 07:56:17;;;;;;;0.90;0.90;;;;;;;;;;4920462;29;20229;-73
2023/08/27 07:58:44;;;;;;;0.82;0.82;;;;;;;;;;4920439;29;20212;-73
2023/08/27 08:01:11;;;;;;;1.30;1.30;;;;;;;;;;4920605;29;20216;-73
2023/08/27 08:03:38;;;;;;;1.10;1.10;;;;;;;;;;4920273;29;20576;-73
2023/08/27 08:06:06;;;;;;;1.10;1.10;;;;;;;;;;4920357;29;20205;-73
2023/08/27 08:08:35;;;;;;;0.98;0.93;;;;;;;;;;4921578;29;20213;-75
2023/08/27 08:11:02;;;;;;;1.60;1.50;;;;;;;;;;4921191;29;20351;-75
2023/08/27 08:13:30;;;;;;;0.85;0.85;;;;;;;;;;4921378;29;20205;-73
2023/08/27 08:15:58;;;;;;;0.93;0.93;;;;;;;;;;4921460;29;20232;-74
2023/08/27 08:18:25;;;;;;;1.05;1.05;;;;;;;;;;4921448;29;20213;-77
2023/08/27 08:20:54;;;;;;;1.20;1.17;;;;;;;;;;4921608;29;20669;-75
2023/08/27 08:23:21;;;;;;;1.50;1.42;;;17.60;99.90;;;;;;4920666;29;20265;-76
2023/08/27 08:25:52;;;;;;;1.02;1.02;;;17.80;99.90;;;;;;4919234;29;20225;-73
2023/08/27 08:28:26;;;;;;;0.98;0.98;;;17.70;99.90;;;;;;4920237;29;20561;-74
2023/08/27 08:30:53;;;;;;;1.05;1.05;;;;;;;;;;4920938;29;20276;-75
2023/08/27 08:33:20;;;;;;;1.55;1.45;;;;;;;;;;4919998;29;20226;-74
2023/08/27 08:35:47;;;;;;;1.23;1.23;;;;;;;;;;4919415;29;20697;-75
2023/08/27 08:38:14;;;;;;;1.17;1.17;;;;;;;;;;4919828;29;20205;-75
2023/08/27 08:40:44;;;;;;;1.08;1.08;;;;;;;;;;4919713;29;20212;-75
2023/08/27 08:43:19;;;;;;;2.05;1.00;;;;;;;;;;4919724;29;20261;-74
2023/08/27 08:45:51;;;;;;;1.00;1.00;;;;;;;;;;4919481;29;20705;-72
2023/08/27 08:48:22;;;;;;;0.90;0.90;;;;;;;;;;4919845;29;20185;-72
2023/08/27 08:50:49;;;;;;;0.90;0.90;;;;;;;;;;4919324;29;20216;-72
2023/08/27 08:53:17;;;;;;;1.08;1.08;;;;;;;;;;4919519;29;20215;-72
2023/08/27 08:55:46;;;;;;;1.05;1.05;;;;;;;;;;4918530;29;20681;-71
2023/08/27 08:58:16;;;;;;;1.00;1.00;;;;;;;;;;4918752;29;20576;-71
2023/08/27 09:00:44;;;;;;;0.85;0.85;;;;;;;;;;4919725;29;20204;-73
2023/08/27 09:03:12;;;;;;;1.20;1.20;;;;;;;;;;4920454;29;20208;-73
2023/08/27 09:05:40;;;;;;;1.20;1.20;;;;;;;;;;4921062;29;20331;-73
2023/08/27 09:08:11;;;;;;;1.35;1.23;;;;;;;;;;4921146;29;20215;-73
2023/08/27 09:10:39;;;;;;;1.15;1.15;;;;;;;;;;4921088;29;20193;-73
2023/08/27 09:13:06;;;;;;;1.40;1.38;;;;;;;;;;4920081;29;20236;-74
2023/08/27 09:15:35;;;;;;;1.20;1.20;;;;;;;;;;4920071;29;20739;-73
2023/08/27 09:18:03;;;;;;;1.25;1.15;;;;;;;;;;4919856;29;20243;-73
2023/08/27 09:20:30;;;;;;;1.20;1.20;;;;;;;;;;4919453;29;20213;-72
2023/08/27 09:22:57;;;;;;;1.10;1.10;;;;;;;;;;4918365;29;20672;-72
2023/08/27 09:25:25;;;;;;;1.00;1.00;;;;;;;;;;4919381;29;20217;-72
2023/08/27 09:27:52;;;;;;;1.10;1.10;;;;;;;;;;4918558;29;20211;-72
2023/08/27 09:30:19;;;;;;;1.00;1.00;;;;;;;;;;4918416;29;20581;-72
2023/08/27 09:32:47;;;;;;;1.10;1.10;;;;;;;;;;4918237;29;20699;-73
2023/08/27 09:35:14;;;;;;;1.10;1.10;;;;;;;;;;4918549;29;20595;-73
2023/08/27 09:37:42;;;;;;;1.00;1.00;;;;;;;;;;4918197;29;20216;-73
2023/08/27 09:40:10;;;;;;;1.08;1.08;;;;;;;;;;4918301;29;20209;-74
2023/08/27 09:42:37;;;;;;;0.95;0.95;;;;;;;;;;4918665;29;20190;-74
2023/08/27 09:45:04;;;;;;;0.90;0.90;;;;;;;;;;4918070;29;20280;-75
2023/08/27 09:47:32;;;;;;;0.90;0.90;;;;;;;;;;4918367;29;20208;-75
2023/08/27 09:50:01;;;;;;;1.00;1.00;;;;;;;;;;4918590;29;20296;-75
2023/08/27 09:52:28;;;;;;;0.90;0.90;;;;;;;;;;4919567;29;20213;-75
2023/08/27 09:54:55;;;;;;;1.08;1.08;;;;;;;;;;4920114;29;20221;-75
2023/08/27 09:57:22;;;;;;;0.88;0.88;;;;;;;;;;4920965;29;20208;-75
2023/08/27 09:59:49;;;;;;;1.00;1.00;;;;;;;;;;4917753;29;20209;-75
2023/08/27 10:02:17;;;;;;;1.20;1.20;;;;;;;;;;4918005;29;20212;-71
2023/08/27 10:04:52;;;;;;;1.05;1.05;;;;;;;;;;4917611;29;20268;-71
2023/08/27 10:07:21;;;;;;;1.10;1.10;;;;;;;;;;4917874;29;20200;-71
2023/08/27 10:09:51;;;;;;;1.10;1.10;;;;;;;;;;4917790;29;20235;-71
2023/08/27 10:12:18;;;;;;;1.10;1.10;;;;;;;;;;4917583;29;20193;-71
2023/08/27 10:14:46;;;;;;;1.08;1.08;;;;;;;;;;4917606;29;20228;-71
2023/08/27 10:17:13;;;;;;;1.08;1.08;;;;;;;;;;4917526;29;20212;-71
2023/08/27 10:19:40;;;;;;;0.80;0.80;;;;;;;;;;4917778;29;20205;-71
2023/08/27 10:22:08;;;;;;;0.90;0.90;;;;;;;;;;4917690;29;20287;-71
2023/08/27 10:24:36;;;;;;;0.95;0.90;;;;;;;;;;4918109;29;20224;-71
2023/08/27 10:27:04;;;;;;;1.10;1.10;;;;;;;;;;4917701;29;20196;-72
2023/08/27 10:29:32;;;;;;;0.95;0.95;;;;;;;;;;4917882;29;20209;-71
2023/08/27 10:31:59;;;;;;;1.00;1.00;;;;;;;;;;4917500;29;20212;-71
2023/08/27 10:34:28;;;;;;;1.05;1.05;;;;;;;;;;4917702;29;20233;-72
2023/08/27 10:36:57;;;;;;;0.77;0.77;;;;;;;;;;4917074;29;20693;-71
2023/08/27 10:39:26;;;;;;;1.55;0.90;;;;;;;;;;4917397;29;20204;-71
2023/08/27 10:41:54;;;;;;;0.70;0.70;;;;;;;;;;4917363;29;20205;-71
2023/08/27 10:44:22;;;;;;;1.75;1.05;;;;;;;;;;4917171;29;20244;-71
2023/08/27 10:47:07;;;;;;;0.88;0.88;;;;;;;;;;4917371;29;20205;-72
2023/08/27 10:49:37;;;;;;;0.80;0.80;;;;;;;;;;4917026;29;20215;-72
2023/08/27 10:52:13;;;;;;;0.70;0.70;;;;;;;;;;4917347;29;20252;-71
2023/08/27 10:54:40;;;;;;;0.80;0.80;;;;;;;;;;4917871;29;20220;-72
2023/08/27 10:57:18;;;;;;;0.63;0.63;;;;;;;;;;4917508;29;20319;-72
2023/08/27 10:59:45;;;;;;;0.80;0.80;;;;;;;;;;4917570;29;20189;-72
2023/08/27 11:02:12;;;;;;;0.75;0.75;;;;;;;;;;4918525;29;20303;-71
2023/08/27 11:04:41;;;;;;;0.63;0.63;;;;;;;;;;4923004;29;20235;-71
2023/08/27 11:07:09;;;;;;;1.20;1.20;;;;;;;;;;4925481;29;20212;-71
2023/08/27 11:09:37;;;;;;;1.13;1.13;;;;;;;;;;4919114;29;20204;-71
2023/08/27 11:12:06;;;;;;;1.58;1.52;;;;;;;;;;4917476;29;20212;-71
2023/08/27 11:14:38;;;;;;;1.35;1.35;;;;;;;;;;4917473;29;20685;-71
2023/08/27 11:17:06;;;;;;;1.25;1.15;;;;;;;;;;4917275;29;20223;-71
2023/08/27 11:19:34;;;;;;;1.10;1.10;;;;;;;;;;4917116;29;20232;-71
2023/08/27 11:22:06;;;;;;;1.15;1.15;;;;;;;;;;4917230;29;20205;-71
2023/08/27 11:24:33;;;;;;;1.25;1.25;;;;;;;;;;4917431;29;20229;-71
2023/08/27 11:27:02;;;;;;;1.00;1.00;;;;;;;;;;4917593;29;20212;-74
2023/08/27 11:29:30;;;;;;;0.93;0.93;;;;;;;;;;4917559;29;20209;-73
2023/08/27 11:32:00;;;;;;;1.33;1.25;;;;;;;;;;4917209;29;20215;-73
2023/08/27 11:34:34;;;;;;;1.88;1.33;;;;;;;;;;4916853;29;20731;-73
2023/08/27 11:37:02;;;;;;;1.52;1.52;;;;;;;;;;4916625;29;20552;-73
2023/08/27 11:39:29;;;;;;;1.75;1.65;;;;;;;;;;4917003;29;20261;-73
2023/08/27 11:41:56;;;;;;;1.65;1.33;;;;;;;;;;4916665;29;20673;-73
2023/08/27 11:44:24;;;;;;;1.00;1.00;;;;;;;;;;4916770;29;20233;-73
2023/08/27 11:46:52;;;;;;;1.13;1.13;;;;;;;;;;4917120;29;20670;-74
2023/08/27 11:49:30;;;;;;;0.98;0.98;;;;;;;;;;4916818;29;20216;-73
2023/08/27 11:51:58;;;;;;;0.85;0.85;;;;;;;;;;4917559;29;20192;-74
2023/08/27 11:54:28;;;;;;;0.93;0.93;;;;;;;;;;4917014;29;20221;-73
2023/08/27 11:56:56;;;;;;;0.82;0.82;;;;;;;;;;4916997;29;20266;-73
2023/08/27 11:59:24;;;;;;;0.80;0.80;;;;;;;;;;4916926;29;20208;-74
2023/08/27 12:01:51;;;;;;;1.05;1.00;;;;;;;;;;4919851;29;20215;-74
2023/08/27 12:04:18;;;;;;;1.13;1.13;;;;;;;;;;4920286;29;20231;-73
2023/08/27 12:06:52;;;;;;;1.00;1.00;;;;;;;;;;4920137;29;20692;-73
2023/08/27 12:09:23;;;;;;;0.65;0.65;;;;;;;;;;4919836;29;20199;-73
2023/08/27 12:11:51;;;;;;;1.20;1.10;;;;;;;;;;4919885;29;20711;-73
2023/08/27 12:14:23;;;;;;;1.20;1.20;;;;;;;;;;4920113;29;20224;-73
2023/08/27 12:16:50;;;;;;;0.70;0.70;;;;;;;;;;4919903;29;20213;-72
2023/08/27 12:19:20;;;;;;;0.90;0.90;;;;;;;;;;4920006;29;20209;-72
2023/08/27 12:21:51;;;;;;;0.65;0.65;;;;;;;;;;4919934;29;20236;-72
2023/08/27 12:24:28;;;;;;;1.05;1.05;;;;;;;;;;4920026;29;20256;-72
2023/08/27 12:26:55;;;;;;;0.90;0.90;;;;;;;;;;4920115;29;20232;-72
2023/08/27 12:29:23;;;;;;;0.90;0.90;;;;;;;;;;4919917;29;20211;-73
2023/08/27 12:31:54;;;;;;;0.98;0.98;;;;;;;;;;4919830;29;20215;-75
2023/08/27 12:34:21;;;;;;;1.05;1.05;;;;;;;;;;4919715;29;20281;-74
2023/08/27 12:36:48;;;;;;;0.88;0.88;;;;;;;;;;4919508;29;20700;-73
2023/08/27 12:39:15;;;;;;;1.05;1.05;;;;;;;;;;4919571;29;20220;-71
2023/08/27 12:41:43;;;;;;;0.80;0.80;;;;;;;;;;4919678;29;20213;-72
2023/08/27 12:44:10;;;;;;;0.80;0.80;;;;;;;;;;4919401;29;20247;-72
2023/08/27 12:46:38;;;;;;;1.00;1.00;;;;;;;;;;4919633;29;20205;-73
2023/08/27 12:49:05;;;;;;;0.70;0.70;;;;;;;;;;4919462;29;20205;-73
2023/08/27 12:51:32;;;;;;;0.90;0.90;;;;;;;;;;4919405;29;20209;-73
2023/08/27 12:54:00;;;;;;;1.10;0.90;;;;;;;;;;4919346;29;20221;-73
2023/08/27 12:56:27;;;;;;;0.88;0.88;;;;;;;;;;4919424;29;20235;-73
2023/08/27 12:58:55;;;;;;;0.82;0.82;;;;;;;;;;4919259;29;20204;-73
2023/08/27 13:01:23;;;;;;;0.90;0.90;;;;;;;;;;4919025;29;20205;-73
2023/08/27 13:03:50;;;;;;;0.93;0.93;;;;;;;;;;4919052;29;20231;-73
2023/08/27 13:06:17;;;;;;;0.80;0.80;;;18.70;99.90;;;;;;4919098;29;20260;-73
2023/08/27 13:08:44;;;;;;;0.65;0.65;;;;;;;;;;4919010;29;20205;-73
2023/08/27 13:11:11;;;;;;;0.85;0.85;;;;;;;;;;4918761;29;20212;-73
2023/08/27 13:13:38;;;;;;;0.50;0.50;;;;;;;;;;4919485;29;20205;-73
2023/08/27 13:16:07;;;;;;;0.68;0.68;;;;;;;;;;4918996;29;20233;-72
2023/08/27 13:18:34;;;;;;;0.77;0.77;;;;;;;;;;4919433;29;20564;-73
2023/08/27 13:21:03;;;;;;;0.73;0.73;;;;;;;;;;4919064;29;20703;-72
2023/08/27 13:23:30;;;;;;;0.70;0.70;;;;;;;;;;4920294;29;20200;-73
2023/08/27 13:25:57;;;;;;;0.65;0.65;;;;;;;;;;4919092;29;20679;-74
2023/08/27 13:28:24;;;;;;;0.60;0.60;;;;;;;;;;4919161;29;20668;-73
2023/08/27 13:30:51;;;;;;;0.68;0.68;;;;;;;;;;4919749;29;20227;-73
2023/08/27 13:33:20;;;;;;;0.73;0.73;;;;;;;;;;4918619;29;20205;-75
2023/08/27 13:35:47;;;;;;;0.60;0.60;;;;;;;;;;4918592;29;20224;-74
2023/08/27 13:38:14;;;;;;;0.90;0.90;;;;;;;;;;4918506;29;20205;-74
2023/08/27 13:40:41;;;;;;;0.70;0.70;;;;;;;;;;4918061;29;20685;-75
2023/08/27 13:43:09;;;;;;;0.70;0.70;;;;;;;;;;4918359;29;20201;-74
2023/08/27 13:45:36;;;;;;;0.40;0.40;;;;;;;;;;4918359;29;20244;-74
2023/08/27 13:48:03;;;;;;;0.63;0.63;;;;;;;;;;4918284;29;20208;-74
2023/08/27 13:50:31;;;;;;;0.60;0.60;;;;;;;;;;4918357;29;20211;-73
2023/08/27 13:52:58;;;;;;;0.60;0.60;;;;;;;;;;4918588;29;20585;-75
2023/08/27 13:55:25;;;;;;;0.65;0.65;;;;;;;;;;4918135;29;20229;-73
2023/08/27 13:57:52;;;;;;;0.65;0.65;;;;;;;;;;4917918;29;20225;-73
2023/08/27 14:00:20;;;;;;;0.77;0.77;;;;;;;;;;4918160;29;20208;-73
2023/08/27 14:02:47;;;;;;;0.60;0.60;;;;;;;;;;4918500;29;20216;-74
2023/08/27 14:05:14;;;;;;;0.65;0.65;;;;;;;;;;4917814;29;20228;-73
2023/08/27 14:07:42;;;;;;;0.70;0.70;;;;;;;;;;4917906;29;20239;-73
2023/08/27 14:10:10;;;;;;;0.65;0.65;;;;;;;;;;4918851;29;20558;-73
2023/08/27 14:12:37;;;;;;;0.52;0.52;;;;;;;;;;4919299;29;20209;-73
2023/08/27 14:15:05;;;;;;;0.57;0.57;;;;;;;;;;4921846;29;20564;-73
2023/08/27 14:17:32;;;;;;;0.70;0.70;;;;;;;;;;4922166;29;20297;-73
2023/08/27 14:19:59;;;;;;;0.60;0.60;;;;;;;;;;4920603;29;20212;-74
2023/08/27 14:22:27;;;;;;;0.60;0.60;;;;;;;;;;4918768;29;20201;-74
2023/08/27 14:24:55;;;;;;;0.60;0.60;;;;;;;;;;4917911;29;20233;-74
2023/08/27 14:27:22;;;;;;;0.60;0.60;;;;;;;;;;4918105;29;20584;-74
2023/08/27 14:29:50;;;;;;;0.47;0.47;;;;;;;;;;4918573;29;20215;-74
2023/08/27 14:32:17;;;;;;;0.60;0.60;;;;;;;;;;4919072;29;20303;-74
2023/08/27 14:34:44;;;;;;;0.85;0.57;;;;;;;;;;4918855;29;20221;-74
2023/08/27 14:37:11;;;;;;;0.60;0.60;;;;;;;;;;4918392;29;20232;-74
2023/08/27 14:39:39;;;;;;;0.55;0.55;;;;;;;;;;4918327;29;20204;-73
2023/08/27 14:42:08;;;;;;;0.50;0.50;;;;;;;;;;4918431;29;20260;-75
2023/08/27 14:44:35;;;;;;;0.50;0.50;;;;;;;;;;4917434;29;20236;-76
2023/08/27 14:47:02;;;;;;;0.70;0.70;;;;;;;;;;4917943;29;20232;-75
2023/08/27 14:49:30;;;;;;;0.57;0.57;;;;;;;;;;4917630;29;20216;-75
2023/08/27 14:51:57;;;;;;;0.55;0.55;;;;;;;;;;4917527;29;20212;-75
2023/08/27 14:54:24;;;;;;;0.50;0.50;;;;;;;;;;4917780;29;20231;-75
2023/08/27 14:56:52;;;;;;;0.60;0.60;;;;;;;;;;4917887;29;20240;-77
2023/08/27 14:59:38;;;;;;;0.45;0.45;;;;;;;;;;4918519;29;20208;-76
2023/08/27 15:02:06;;;;;;;0.50;0.50;;;;;;;;;;4917594;29;20205;-77
2023/08/27 15:04:33;;;;;;;0.65;0.65;;;;;;;;;;4917380;29;20228;-76
2023/08/27 15:07:02;;;;;;;0.60;0.60;;;;;;;;;;4917304;29;20229;-76
2023/08/27 15:09:30;;;;;;;0.40;0.40;;;;;;;;;;4917149;29;20209;-74
2023/08/27 15:11:57;;;;;;;0.52;0.52;;;;;;;;;;4917215;29;20204;-75
2023/08/27 15:14:24;;;;;;;0.50;0.50;;;;;;;;;;4917288;29;20229;-71
2023/08/27 15:16:53;;;;;;;0.47;0.47;;;;;;;;;;4917577;29;20225;-73
2023/08/27 15:19:21;;;;;;;0.50;0.50;;;;;;;;;;4917174;29;20673;-74
2023/08/27 15:21:48;;;;;;;0.47;0.47;;;;;;;;;;4917750;29;20193;-74
2023/08/27 15:24:15;;;;;;;0.45;0.45;;;;;;;;;;4917016;29;20224;-73
2023/08/27 15:26:43;;;;;;;0.60;0.60;;;;;;;;;;4917486;29;20244;-73
2023/08/27 15:29:11;;;;;;;0.60;0.60;;;;;;;;;;4917454;29;20202;-73
2023/08/27 15:31:38;;;;;;;0.60;0.60;;;;;;;;;;4917342;29;20693;-74
2023/08/27 15:34:09;;;;;;;0.40;0.40;;;;;;;;;;4917745;29;20225;-73
2023/08/27 15:36:36;;;;;;;0.80;0.55;;;;;;;;;;4920606;29;20569;-73
2023/08/27 15:39:03;;;;;;;0.60;0.60;;;;;;;;;;4920795;29;20213;-73
2023/08/27 15:41:30;;;;;;;0.50;0.50;;;;;;;;;;4921121;29;20201;-73
2023/08/27 15:43:59;;;;;;;0.50;0.50;;;;;;;;;;4920718;29;20603;-72
2023/08/27 15:46:27;;;;;;;0.50;0.50;;;;;;;;;;4920656;29;20300;-74
2023/08/27 15:48:54;;;;;;;0.50;0.50;;;;;;;;;;4920739;29;20205;-73
2023/08/27 15:51:23;;;;;;;0.40;0.40;;;;;;;;;;4920695;29;20204;-73
2023/08/27 15:53:50;;;;;;;0.70;0.70;;;;;;;;;;4920462;29;20713;-73
2023/08/27 15:56:17;;;;;;;0.80;0.60;;;;;;;;;;4920156;29;20261;-73
2023/08/27 15:58:44;;;;;;;0.40;0.40;;;;;;;;;;4920490;29;20221;-71
2023/08/27 16:01:13;;;;;;;0.50;0.50;;;;;;;;;;4920471;29;20208;-73
2023/08/27 16:03:40;;;;;;;1.23;0.70;;;;;;;;;;4920420;29;20193;-72
2023/08/27 16:06:07;;;;;;;0.40;0.40;;;;;;;;;;4920461;29;20205;-71
2023/08/27 16:08:36;;;;;;;0.68;0.68;;;;;;;;;;4920765;29;20229;-71
2023/08/27 16:11:03;;;;;;;0.70;0.70;;;;;;;;;;4920358;29;20209;-72
2023/08/27 16:13:30;;;;;;;0.68;0.68;;;;;;;;;;4920431;29;20205;-73
2023/08/27 16:15:57;;;;;;;0.60;0.60;;;;;;;;;;4920845;29;20221;-72
2023/08/27 16:18:24;;;;;;;0.60;0.60;;;;;;;;;;4920938;29;20228;-72
2023/08/27 16:20:51;;;;;;;0.50;0.50;;;;;;;;;;4920194;29;20674;-72
2023/08/27 16:23:18;;;;;;;0.60;0.60;;;;;;;;;;4920646;29;20213;-72
2023/08/27 16:25:48;;;;;;;1.73;0.68;;;;;;;;;;4920437;29;20229;-72
2023/08/27 16:28:15;;;;;;;0.80;0.80;;;;;;;;;;4919762;29;20220;-71
2023/08/27 16:30:42;;;;;;;1.23;0.65;;;;;;;;;;4920167;29;20216;-73
2023/08/27 16:33:09;;;;;;;0.55;0.55;;;;;;;;;;4920066;29;20185;-71
2023/08/27 16:35:36;;;;;;;0.50;0.50;;;;;;;;;;4920011;29;20230;-72
2023/08/27 16:38:04;;;;;;;0.60;0.60;;;;;;;;;;4919646;29;20225;-72
2023/08/27 16:40:35;;;;;;;0.70;0.70;;;;;;;;;;4919821;29;20212;-71
2023/08/27 16:43:04;;;;;;;0.73;0.73;;;;;;;;;;4919848;29;20190;-71
2023/08/27 16:45:31;;;;;;;0.50;0.50;;;;;;;;;;4920086;29;20233;-71
2023/08/27 16:47:59;;;;;;;0.60;0.60;;;;;;;;;;4919834;29;20205;-72
2023/08/27 16:50:26;;;;;;;0.70;0.70;;;;;;;;;;4920412;29;20213;-71
2023/08/27 16:52:53;;;;;;;0.60;0.60;;;;;;;;;;4920537;29;20324;-72
2023/08/27 16:55:22;;;;;;;0.80;0.80;;;;;;;;;;4919399;29;20636;-72
2023/08/27 16:57:50;;;;;;;0.60;0.60;;;;;;;;;;4919559;29;20225;-72
2023/08/27 17:00:19;;;;;;;0.70;0.70;;;;;;;;;;4919602;29;20205;-71
2023/08/27 17:02:46;;;;;;;0.50;0.50;;;;;;;;;;4919998;29;20213;-72
2023/08/27 17:05:13;;;;;;;0.65;0.65;;;;;;;;;;4919266;29;20585;-71
2023/08/27 17:07:40;;;;;;;0.80;0.80;;;;;;;;;;4919380;29;20205;-71
2023/08/27 17:10:08;;;;;;;0.68;0.68;;;;;;;;;;4920054;29;20205;-72
2023/08/27 17:12:35;;;;;;;0.73;0.73;;;;;;;;;;4919407;29;20572;-72
2023/08/27 17:15:02;;;;;;;1.77;1.00;;;;;;;;;;4919494;29;20252;-72
2023/08/27 17:17:31;;;;;;;1.08;1.00;;;;;;;;;;4919079;29;20217;-72
2023/08/27 17:19:58;;;;;;;1.25;0.70;;;;;;;;;;4919278;29;20201;-72
2023/08/27 17:22:25;;;;;;;0.68;0.68;;;;;;;;;;4919405;29;20216;-72
2023/08/27 17:24:53;;;;;;;0.68;0.68;;;;;;;;;;4918917;29;20578;-72
2023/08/27 17:27:20;;;;;;;0.80;0.80;;;;;;;;;;4918825;29;20205;-71
2023/08/27 17:29:47;;;;;;;0.70;0.70;;;;;;;;;;4918826;29;20225;-71
2023/08/27 17:32:14;;;;;;;0.70;0.70;;;;;;;;;;4919293;29;20292;-72
2023/08/27 17:34:43;;;;;;;0.90;0.75;;;;;;;;;;4919437;29;20225;-72
2023/08/27 17:37:10;;;;;;;0.75;0.75;;;;;;;;;;4918797;29;20244;-72
2023/08/27 17:39:38;;;;;;;0.80;0.80;;;;;;;;;;4918926;29;20212;-72
2023/08/27 17:42:06;;;;;;;0.50;0.50;;;;;;;;;;4919178;29;20213;-71
2023/08/27 17:44:33;;;;;;;0.60;0.60;;;;;;;;;;4918770;29;20233;-72
2023/08/27 17:47:00;;;;;;;0.68;0.68;;;;;;;;;;4918772;29;20205;-72
2023/08/27 17:49:27;;;;;;;0.60;0.60;;;;;;;;;;4918786;29;20206;-73
2023/08/27 17:51:56;;;;;;;0.50;0.50;;;;;;;;;;4918722;29;20209;-72
2023/08/27 17:54:23;;;;;;;0.60;0.60;;;;;;;;;;4918477;29;20232;-71
2023/08/27 17:56:50;;;;;;;0.60;0.60;;;;;;;;;;4918926;29;20216;-71
2023/08/27 17:59:17;;;;;;;0.40;0.40;;;;;;;;;;4918862;29;20229;-78
2023/08/27 18:01:44;;;;;;;0.50;0.50;;;;;;;;;;4918617;29;20206;-71
2023/08/27 18:04:11;;;;;;;0.70;0.70;;;;;;;;;;4918423;29;20229;-71
2023/08/27 18:06:39;;;;;;;0.73;0.70;;;;;;;;;;4918804;29;20205;-72
2023/08/27 18:09:07;;;;;;;0.60;0.60;;;;;;;;;;4920220;29;20205;-72
2023/08/27 18:11:34;;;;;;;0.50;0.50;;;;;;;;;;4919608;29;20209;-73
2023/08/27 18:14:01;;;;;;;0.68;0.68;;;;;;;;;;4918669;29;20232;-71
2023/08/27 18:16:28;;;;;;;0.70;0.70;;;;;;;;;;4917995;29;20225;-70
2023/08/27 18:18:55;;;;;;;0.80;0.80;;;;;;;;;;4918106;29;20232;-70
2023/08/27 18:21:23;;;;;;;0.80;0.80;;;;;;;;;;4918060;29;20209;-70
2023/08/27 18:23:50;;;;;;;0.60;0.60;;;;;;;;;;4918118;29;20225;-71
2023/08/27 18:26:19;;;;;;;0.70;0.70;;;;;;;;;;4917893;29;20205;-71
2023/08/27 18:28:46;;;;;;;1.00;1.00;;;;;;;;;;4917929;29;20210;-70
2023/08/27 18:31:13;;;;;;;1.10;1.10;;;;;;;;;;4917779;29;20591;-72
2023/08/27 18:33:40;;;;;;;1.00;1.00;;;;;;;;;;4917598;29;20205;-71
2023/08/27 18:36:07;;;;;;;1.35;1.35;;;;;;;;;;4917961;29;20212;-73
2023/08/27 18:38:34;;;;;;;1.00;1.00;;;;;;;;;;4917517;29;20705;-72
2023/08/27 18:41:01;;;;;;;1.30;1.20;;;;;;;;;;4917772;29;20202;-72
2023/08/27 18:43:30;;;;;;;1.08;1.08;;;;;;;;;;4917859;29;20573;-72
2023/08/27 18:45:57;;;;;;;0.95;0.90;;;;;;;;;;4917828;29;20589;-72
2023/08/27 18:48:24;;;;;;;1.13;0.93;;;;;;;;;;4917810;29;20201;-72
2023/08/27 18:50:51;;;;;;;1.00;1.00;;;;;;;;;;4917789;29;20291;-72
2023/08/27 18:53:18;;;;;;;0.77;0.77;;;;;;;;;;4917735;29;20227;-71
2023/08/27 18:55:45;;;;;;;0.80;0.80;;;;;;;;;;4917562;29;20229;-72
2023/08/27 18:58:57;;;;;;;0.90;0.90;;;;;;;;;;4917196;29;20225;-71
2023/08/27 19:02:05;;;;;;;1.02;1.02;;;;;;;;;;4917260;29;20257;-71
2023/08/27 19:04:44;;;;;;;1.00;1.00;;;14.20;99.90;;;;;;4917153;29;20232;-71
2023/08/27 19:07:14;;;;;;;0.70;0.70;;;;;;;;;;4916825;29;20193;-71
2023/08/27 19:09:45;;;;;;;0.98;0.98;;;;;;;;;;4919104;29;20201;-71
2023/08/27 19:12:12;;;;;;;0.80;0.80;;;14.10;99.90;;;;;;4921206;29;20186;-71
2023/08/27 19:14:39;;;;;;;0.73;0.73;;;14.10;99.90;;;;;;4921103;29;20312;-71
2023/08/27 19:17:07;;;;;;;0.80;0.80;;;14.10;99.90;;;;;;4921662;29;20579;-71
2023/08/27 19:19:35;;;;;;;0.70;0.70;;;;;;;;;;4920936;29;20229;-71
2023/08/27 19:22:02;;;;;;;0.55;0.55;;;;;;;;;;4921725;29;20554;-72
2023/08/27 19:24:32;;;;;;;0.70;0.70;;;;;;;;;;4920819;29;20232;-71
2023/08/27 19:27:01;;;;;;;0.70;0.70;;;;;;;;;;4921213;29;20224;-71
2023/08/27 19:29:30;;;;;;;0.68;0.68;;;;;;;;;;4921193;29;20286;-71
2023/08/27 19:31:59;;;;;;;0.85;0.85;;;;;;;;;;4920818;29;20669;-71
2023/08/27 19:34:30;;;;;;;0.63;0.63;;;;;;;;;;4921157;29;20258;-72
2023/08/27 19:36:59;;;;;;;0.60;0.60;;;;;;;;;;4920911;29;20209;-72
2023/08/27 19:39:28;;;;;;;0.70;0.70;;;;;;;;;;4920860;29;20234;-72
2023/08/27 19:41:58;;;;;;;0.63;0.57;;;;;;;;;;4920804;29;20294;-71
2023/08/27 19:44:27;;;;;;;1.20;0.60;;;;;;;;;;4920710;29;20237;-71
2023/08/27 19:46:56;;;;;;;0.68;0.68;;;;;;;;;;4920987;29;20205;-72
2023/08/27 19:49:25;;;;;;;0.63;0.63;;;;;;;;;;4920822;29;20209;-72
2023/08/27 19:51:56;;;;;;;0.70;0.70;;;;;;;;;;4920618;29;20205;-72
2023/08/27 19:54:25;;;;;;;0.60;0.60;;;;;;;;;;4920223;29;20262;-72
2023/08/27 19:56:54;;;;;;;0.70;0.70;;;;;;;;;;4920679;29;20221;-72
2023/08/27 19:59:24;;;;;;;0.80;0.80;;;;;;;;;;4920699;29;20201;-72
2023/08/27 20:01:53;;;;;;;0.70;0.70;;;;;;;;;;4920429;29;20229;-70
2023/08/27 20:04:22;;;;;;;0.60;0.60;;;;;;;;;;4920772;29;20310;-70
2023/08/27 20:06:51;;;;;;;0.70;0.70;;;;;;;;;;4920264;29;20287;-70
2023/08/27 20:09:22;;;;;;;0.85;0.85;;;;;;;;;;4920265;29;20205;-70
2023/08/27 20:11:51;;;;;;;1.10;0.88;;;;;;;;;;4920388;29;20266;-71
2023/08/27 20:14:21;;;;;;;0.65;0.65;;;;;;;;;;4920540;29;20221;-70
2023/08/27 20:16:50;;;;;;;1.00;1.00;;;;;;;;;;4919661;29;20553;-70